createdAt,value
2022-11-02T00:02:19.838Z,100367.00
2022-11-02T00:04:47.004Z,100366.25
2022-11-02T00:07:14.364Z,100368.81
2022-11-02T00:09:41.582Z,100373.03
2022-11-02T00:12:08.987Z,100372.88
2022-11-02T00:14:36.080Z,100371.94
2022-11-02T00:17:03.545Z,100374.41
2022-11-02T00:19:31.068Z,100384.22
2022-11-02T00:21:59.250Z,100378.19
2022-11-02T00:24:26.380Z,100383.19
2022-11-02T00:26:55.076Z,100376.41
2022-11-02T00:29:24.337Z,100380.66
2022-11-02T00:31:51.746Z,100379.78
2022-11-02T00:34:19.155Z,100374.19
2022-11-02T00:36:48.013Z,100373.44
2022-11-02T00:39:17.884Z,100370.38
2022-11-02T00:41:45.501Z,100378.75
2022-11-02T00:44:12.653Z,100373.66
2022-11-02T00:46:40.307Z,100368.50
2022-11-02T00:49:07.453Z,100379.84
2022-11-02T00:51:36.238Z,100378.13
2022-11-02T00:54:03.496Z,100375.84
2022-11-02T00:56:30.861Z,100390.63
2022-11-02T00:58:58.128Z,100387.81
2022-11-02T01:01:25.635Z,100392.91
2022-11-02T01:03:52.810Z,100396.44
2022-11-02T01:06:20.377Z,100395.31
2022-11-02T01:08:47.559Z,100394.88
2022-11-02T01:11:20.629Z,100395.19
2022-11-02T01:13:47.832Z,100399.78
2022-11-02T01:16:15.712Z,100396.81
2022-11-02T01:18:43.897Z,100395.19
2022-11-02T01:21:11.363Z,100405.69
2022-11-02T01:23:39.783Z,100392.81
2022-11-02T01:26:09.731Z,100397.06
2022-11-02T01:28:37.133Z,100407.50
2022-11-02T01:31:04.501Z,100409.06
2022-11-02T01:33:32.186Z,100402.75
2022-11-02T01:36:02.226Z,100395.09
2022-11-02T01:38:30.514Z,100391.59
2022-11-02T01:40:58.239Z,100387.78
2022-11-02T01:43:29.837Z,100395.28
2022-11-02T01:46:07.064Z,100395.88
2022-11-02T01:48:35.970Z,100398.59
2022-11-02T01:51:09.114Z,100396.06
2022-11-02T01:53:40.365Z,100394.38
2022-11-02T01:56:10.808Z,100387.22
2022-11-02T01:58:38.534Z,100390.63
2022-11-02T02:01:06.709Z,100378.59
2022-11-02T02:03:35.821Z,100389.09
2022-11-02T02:06:09.202Z,100391.34
2022-11-02T02:08:41.282Z,100387.94
2022-11-02T02:11:30.072Z,100396.44
2022-11-02T02:14:11.103Z,100391.31
2022-11-02T02:17:15.168Z,100392.44
2022-11-02T02:20:00.810Z,100387.78
2022-11-02T02:22:38.571Z,100379.28
2022-11-02T02:25:43.488Z,100385.34
2022-11-02T02:28:13.994Z,100387.91
2022-11-02T02:30:50.534Z,100377.28
2022-11-02T02:33:24.361Z,100376.69
2022-11-02T02:36:00.909Z,100380.56
2022-11-02T02:38:41.466Z,100390.13
2022-11-02T02:41:16.321Z,100375.16
2022-11-02T02:43:49.501Z,100375.16
2022-11-02T02:46:22.093Z,100388.97
2022-11-02T02:48:52.858Z,100398.31
2022-11-02T02:51:24.830Z,100398.31
2022-11-02T02:54:08.073Z,100394.59
2022-11-02T02:56:41.875Z,100389.53
2022-11-02T02:59:20.353Z,100402.53
2022-11-02T03:01:48.440Z,100408.41
2022-11-02T03:04:16.299Z,100390.84
2022-11-02T03:06:49.899Z,100389.56
2022-11-02T03:09:57.069Z,100400.72
2022-11-02T03:12:36.279Z,100401.28
2022-11-02T03:15:40.522Z,100402.94
2022-11-02T03:18:24.588Z,100411.13
2022-11-02T03:21:08.946Z,100410.16
2022-11-02T03:23:41.643Z,100411.28
2022-11-02T03:26:23.623Z,100421.47
2022-11-02T03:29:08.436Z,100424.59
2022-11-02T03:31:46.319Z,100430.59
2022-11-02T03:34:46.918Z,100430.78
2022-11-02T03:37:33.486Z,100430.81
2022-11-02T03:40:17.265Z,100427.47
2022-11-02T03:42:46.753Z,100427.66
2022-11-02T03:45:24.794Z,100437.91
2022-11-02T03:47:59.011Z,100439.59
2022-11-02T03:50:27.963Z,100437.06
2022-11-02T03:53:07.971Z,100433.34
2022-11-02T03:55:41.042Z,100447.84
2022-11-02T03:58:11.654Z,100434.56
2022-11-02T04:00:50.288Z,100442.25
2022-11-02T04:03:20.758Z,100445.72
2022-11-02T04:05:48.099Z,100449.84
2022-11-02T04:08:33.104Z,100441.44
2022-11-02T04:11:22.212Z,100453.34
2022-11-02T04:14:09.826Z,100438.13
2022-11-02T04:16:40.496Z,100452.84
2022-11-02T04:19:29.020Z,100440.81
2022-11-02T04:22:24.262Z,100441.28
2022-11-02T04:25:15.232Z,100450.09
2022-11-02T04:27:52.520Z,100436.09
2022-11-02T04:30:24.334Z,100436.28
2022-11-02T04:33:12.498Z,100435.44
2022-11-02T04:35:52.413Z,100441.78
2022-11-02T04:38:39.331Z,100431.03
2022-11-02T04:41:29.567Z,100423.94
2022-11-02T04:43:57.542Z,100435.78
2022-11-02T04:46:28.316Z,100441.41
2022-11-02T04:48:56.500Z,100423.00
2022-11-02T04:51:26.923Z,100431.59
2022-11-02T04:53:55.816Z,100427.34
2022-11-02T04:56:25.611Z,100427.78
2022-11-02T04:58:56.216Z,100427.09
2022-11-02T05:01:27.020Z,100431.97
2022-11-02T05:03:55.386Z,100417.09
2022-11-02T05:06:25.706Z,100418.22
2022-11-02T05:08:54.277Z,100424.88
2022-11-02T05:11:22.100Z,100425.09
2022-11-02T05:13:50.945Z,100427.09
2022-11-02T05:16:19.406Z,100425.41
2022-11-02T05:18:49.393Z,100414.16
2022-11-02T05:21:18.540Z,100421.59
2022-11-02T05:23:46.466Z,100432.94
2022-11-02T05:26:14.632Z,100437.03
2022-11-02T05:28:45.804Z,100446.25
2022-11-02T05:31:13.189Z,100450.78
2022-11-02T05:33:41.502Z,100454.84
2022-11-02T05:36:14.027Z,100450.50
2022-11-02T05:38:44.664Z,100458.97
2022-11-02T05:41:13.168Z,100461.97
2022-11-02T05:43:41.427Z,100470.72
2022-11-02T05:46:11.403Z,100467.91
2022-11-02T05:48:38.516Z,100459.53
2022-11-02T05:51:06.183Z,100463.72
2022-11-02T05:53:37.409Z,100461.44
2022-11-02T05:56:06.990Z,100454.69
2022-11-02T05:58:34.241Z,100459.88
2022-11-02T06:01:03.420Z,100460.22
2022-11-02T06:03:31.741Z,100461.78
2022-11-02T06:06:07.006Z,100465.72
2022-11-02T06:08:39.204Z,100453.34
2022-11-02T06:11:11.146Z,100456.25
2022-11-02T06:13:39.178Z,100461.66
2022-11-02T06:16:09.579Z,100449.97
2022-11-02T06:18:38.345Z,100456.34
2022-11-02T06:21:05.929Z,100455.66
2022-11-02T06:23:33.295Z,100454.13
2022-11-02T06:26:01.629Z,100457.13
2022-11-02T06:28:29.783Z,100459.13
2022-11-02T06:30:57.989Z,100465.78
2022-11-02T06:33:25.118Z,100449.72
2022-11-02T06:35:54.111Z,100465.97
2022-11-02T06:38:22.053Z,100458.78
2022-11-02T06:41:00.404Z,100464.72
2022-11-02T06:43:28.037Z,100463.22
2022-11-02T06:45:56.580Z,100461.81
2022-11-02T06:48:26.624Z,100459.81
2022-11-02T06:50:58.245Z,100460.47
2022-11-02T06:53:26.399Z,100462.94
2022-11-02T06:55:58.039Z,100470.78
2022-11-02T06:58:26.345Z,100469.22
2022-11-02T07:00:59.430Z,100463.63
2022-11-02T07:03:27.184Z,100465.44
2022-11-02T07:05:54.662Z,100466.66
2022-11-02T07:08:23.106Z,100478.94
2022-11-02T07:10:50.457Z,100473.31
2022-11-02T07:13:18.122Z,100465.84
2022-11-02T07:15:45.560Z,100472.78
2022-11-02T07:18:13.727Z,100479.00
2022-11-02T07:20:41.101Z,100470.97
2022-11-02T07:23:09.888Z,100481.00
2022-11-02T07:25:37.791Z,100478.91
2022-11-02T07:28:05.120Z,100490.13
2022-11-02T07:30:34.545Z,100488.16
2022-11-02T07:33:02.019Z,100487.47
2022-11-02T07:35:29.698Z,100476.47
2022-11-02T07:38:04.911Z,100475.13
2022-11-02T07:40:34.461Z,100481.03
2022-11-02T07:43:02.574Z,100481.03
2022-11-02T07:45:40.432Z,100477.66
2022-11-02T07:48:07.594Z,100485.06
2022-11-02T07:50:34.968Z,100478.06
2022-11-02T07:53:02.305Z,100475.06
2022-11-02T07:55:31.072Z,100478.91
2022-11-02T07:58:03.838Z,100476.38
2022-11-02T08:00:37.488Z,100480.28
2022-11-02T08:03:07.259Z,100473.16
2022-11-02T08:05:37.402Z,100473.19
2022-11-02T08:08:08.234Z,100477.28
2022-11-02T08:10:39.156Z,100463.75
2022-11-02T08:13:11.561Z,100467.28
2022-11-02T08:15:39.249Z,100474.75
2022-11-02T08:18:11.743Z,100476.13
2022-11-02T08:20:39.237Z,100469.75
2022-11-02T08:23:07.833Z,100481.25
2022-11-02T08:25:35.494Z,100492.53
2022-11-02T08:28:04.542Z,100477.78
2022-11-02T08:30:32.809Z,100483.78
2022-11-02T08:33:06.868Z,100479.59
2022-11-02T08:35:35.033Z,100482.25
2022-11-02T08:38:03.478Z,100476.59
2022-11-02T08:40:31.644Z,100479.75
2022-11-02T08:43:00.926Z,100479.78
2022-11-02T08:45:35.129Z,100477.50
2022-11-02T08:48:10.541Z,100474.66
2022-11-02T08:50:38.162Z,100479.94
2022-11-02T08:53:06.503Z,100474.28
2022-11-02T08:55:33.976Z,100472.81
2022-11-02T08:58:02.513Z,100463.34
2022-11-02T09:00:31.909Z,100467.97
2022-11-02T09:03:04.582Z,100460.88
2022-11-02T09:05:34.244Z,100464.81
2022-11-02T09:08:08.140Z,100463.94
2022-11-02T09:10:37.067Z,100463.78
2022-11-02T09:13:07.471Z,100466.22
2022-11-02T09:15:36.989Z,100462.25
2022-11-02T09:18:06.081Z,100461.53
2022-11-02T09:20:34.196Z,100459.22
2022-11-02T09:23:01.873Z,100460.63
2022-11-02T09:25:29.008Z,100464.72
2022-11-02T09:27:57.741Z,100453.53
2022-11-02T09:30:26.428Z,100467.41
2022-11-02T09:32:58.735Z,100463.44
2022-11-02T09:35:28.699Z,100467.47
2022-11-02T09:37:56.697Z,100457.53
2022-11-02T09:40:26.885Z,100460.00
2022-11-02T09:43:32.197Z,100459.03
2022-11-02T09:46:05.475Z,100462.31
2022-11-02T09:48:43.656Z,100451.84
2022-11-02T09:51:12.152Z,100458.78
2022-11-02T09:53:49.081Z,100444.66
2022-11-02T09:56:20.006Z,100453.97
2022-11-02T09:59:00.270Z,100463.31
2022-11-02T10:01:33.831Z,100448.09
2022-11-02T10:04:26.202Z,100454.03
2022-11-02T10:07:05.754Z,100447.78
2022-11-02T10:09:56.145Z,100444.88
2022-11-02T10:12:32.008Z,100441.34
2022-11-02T10:15:09.306Z,100431.91
2022-11-02T10:17:40.392Z,100427.13
2022-11-02T10:20:27.101Z,100434.34
2022-11-02T10:23:03.869Z,100435.72
2022-11-02T10:25:31.603Z,100436.97
2022-11-02T10:28:15.911Z,100441.28
2022-11-02T10:30:44.674Z,100436.63
2022-11-02T10:33:18.161Z,100425.69
2022-11-02T10:36:17.405Z,100426.31
2022-11-02T10:39:00.832Z,100433.81
2022-11-02T10:41:41.712Z,100423.72
2022-11-02T10:44:18.103Z,100418.72
2022-11-02T10:47:03.735Z,100423.38
2022-11-02T10:49:55.250Z,100419.53
2022-11-02T10:52:23.033Z,100418.28
2022-11-02T10:54:51.437Z,100411.41
2022-11-02T10:57:25.421Z,100409.84
2022-11-02T11:00:25.166Z,100407.59
2022-11-02T11:03:08.090Z,100394.31
2022-11-02T11:05:50.320Z,100402.56
2022-11-02T11:08:41.370Z,100388.16
2022-11-02T11:11:19.558Z,100393.75
2022-11-02T11:19:59.346Z,100394.91
2022-11-02T11:22:35.228Z,100409.16
2022-11-02T11:25:27.638Z,100400.03
2022-11-02T11:27:58.214Z,100399.19
2022-11-02T11:30:58.349Z,100396.28
2022-11-02T11:33:21.545Z,100399.31
2022-11-02T11:35:51.060Z,100401.84
2022-11-02T11:38:22.656Z,100401.66
2022-11-02T11:40:54.702Z,100392.56
2022-11-02T11:43:23.673Z,100405.06
2022-11-02T11:46:06.479Z,100401.34
2022-11-02T11:48:46.321Z,100399.47
2022-11-02T11:51:30.628Z,100401.22
2022-11-02T11:54:19.730Z,100388.03
2022-11-02T11:56:48.610Z,100374.16
2022-11-02T11:59:28.294Z,100374.94
2022-11-02T12:02:01.757Z,100377.59
2022-11-02T12:04:36.082Z,100374.56
2022-11-02T12:07:18.862Z,100381.91
2022-11-02T12:10:01.333Z,100363.28
2022-11-02T12:13:06.925Z,100375.41
2022-11-02T12:15:52.728Z,100358.97
2022-11-02T12:18:33.839Z,100362.19
2022-11-02T12:21:25.798Z,100359.50
2022-11-02T12:23:59.456Z,100366.31
2022-11-02T12:26:48.328Z,100362.78
2022-11-02T12:29:37.755Z,100364.53
2022-11-02T12:32:13.636Z,100356.50
2022-11-02T12:35:28.877Z,100355.59
2022-11-02T12:38:00.792Z,100367.41
2022-11-02T12:40:50.783Z,100364.03
2022-11-02T12:43:43.826Z,100376.56
2022-11-02T12:46:26.596Z,100377.91
2022-11-02T12:49:28.793Z,100381.06
2022-11-02T12:52:17.077Z,100381.50
2022-11-02T12:54:52.123Z,100371.13
2022-11-02T12:57:23.831Z,100366.22
2022-11-02T12:59:55.936Z,100372.50
2022-11-02T13:02:29.157Z,100363.75
2022-11-02T13:05:00.860Z,100359.69
2022-11-02T13:07:42.739Z,100357.59
2022-11-02T13:10:20.165Z,100353.19
2022-11-02T13:13:02.292Z,100345.88
2022-11-02T13:15:31.977Z,100354.41
2022-11-02T13:18:06.291Z,100345.34
2022-11-02T13:20:45.074Z,100343.81
2022-11-02T13:23:23.183Z,100345.03
2022-11-02T13:25:56.394Z,100340.50
2022-11-02T13:28:26.852Z,100341.41
2022-11-02T13:30:55.487Z,100335.38
2022-11-02T13:33:34.787Z,100328.69
2022-11-02T13:36:01.910Z,100336.41
2022-11-02T13:38:39.388Z,100340.00
2022-11-02T13:41:25.113Z,100350.00
2022-11-02T13:44:19.756Z,100345.06
2022-11-02T13:47:11.653Z,100349.78
2022-11-02T13:49:49.684Z,100343.25
2022-11-02T13:52:22.733Z,100346.25
2022-11-02T13:54:54.155Z,100351.75
2022-11-02T13:57:48.584Z,100360.91
2022-11-02T14:00:25.283Z,100355.22
2022-11-02T14:03:18.365Z,100352.31
2022-11-02T14:05:53.806Z,100342.44
2022-11-02T14:08:42.772Z,100345.78
2022-11-02T14:11:10.214Z,100360.47
2022-11-02T14:13:55.869Z,100355.19
2022-11-02T14:16:48.254Z,100352.53
2022-11-02T14:19:20.327Z,100351.94
2022-11-02T14:21:50.865Z,100357.88
2022-11-02T14:24:39.742Z,100354.06
2022-11-02T14:27:13.318Z,100352.44
2022-11-02T14:29:46.762Z,100356.59
2022-11-02T14:32:49.757Z,100354.28
2022-11-02T14:35:35.554Z,100352.66
2022-11-02T14:38:12.068Z,100363.47
2022-11-02T14:41:10.418Z,100360.47
2022-11-02T14:43:55.165Z,100348.75
2022-11-02T14:46:33.306Z,100344.69
2022-11-02T14:49:03.020Z,100353.31
2022-11-02T14:51:38.575Z,100353.47
2022-11-02T14:54:18.840Z,100348.06
2022-11-02T14:56:56.832Z,100357.13
2022-11-02T14:59:32.362Z,100356.94
2022-11-02T15:02:02.857Z,100360.47
2022-11-02T15:04:33.404Z,100362.38
2022-11-02T15:07:03.407Z,100365.56
2022-11-02T15:09:55.847Z,100370.09
2022-11-02T15:12:29.108Z,100369.63
2022-11-02T15:15:32.604Z,100361.03
2022-11-02T15:18:13.631Z,100373.50
2022-11-02T15:20:46.144Z,100373.66
2022-11-02T15:23:31.013Z,100374.94
2022-11-02T15:26:00.185Z,100366.41
2022-11-02T15:28:32.447Z,100372.63
2022-11-02T15:31:07.492Z,100381.28
2022-11-02T15:33:42.538Z,100382.28
2022-11-02T15:36:30.523Z,100379.44
2022-11-02T15:38:58.263Z,100373.97
2022-11-02T15:42:04.625Z,100362.47
2022-11-02T15:45:05.417Z,100377.34
2022-11-02T15:47:55.007Z,100368.16
2022-11-02T15:50:40.148Z,100393.97
2022-11-02T15:53:29.460Z,100394.44
2022-11-02T15:56:35.472Z,100394.44
2022-11-02T15:59:08.932Z,100401.84
2022-11-02T16:01:36.375Z,100396.28
2022-11-02T16:04:07.318Z,100398.44
2022-11-02T16:06:44.171Z,100399.91
2022-11-02T16:09:30.659Z,100398.41
2022-11-02T16:12:16.935Z,100403.50
2022-11-02T16:14:57.761Z,100401.22
2022-11-02T16:17:27.864Z,100406.88
2022-11-02T16:20:13.922Z,100399.34
2022-11-02T16:22:46.560Z,100389.34
2022-11-02T16:25:20.981Z,100401.25
2022-11-02T16:27:48.622Z,100402.41
2022-11-02T16:30:21.772Z,100418.28
2022-11-02T16:32:58.188Z,100411.59
2022-11-02T16:35:26.718Z,100415.47
2022-11-02T16:37:53.878Z,100416.44
2022-11-02T16:40:21.850Z,100414.69
2022-11-02T16:42:52.771Z,100415.25
2022-11-02T16:45:43.287Z,100429.59
2022-11-02T16:48:17.094Z,100428.34
2022-11-02T16:51:01.795Z,100419.56
2022-11-02T16:53:31.860Z,100420.66
2022-11-02T16:56:15.882Z,100419.53
2022-11-02T16:58:50.256Z,100429.41
2022-11-02T17:01:24.669Z,100420.06
2022-11-02T17:03:52.327Z,100429.75
2022-11-02T17:06:20.255Z,100436.25
2022-11-02T17:08:54.406Z,100434.00
2022-11-02T17:11:22.908Z,100430.50
2022-11-02T17:13:54.323Z,100422.16
2022-11-02T17:16:21.995Z,100435.47
2022-11-02T17:18:49.443Z,100424.44
2022-11-02T17:21:26.982Z,100429.53
2022-11-02T17:23:56.782Z,100430.13
2022-11-02T17:26:26.716Z,100440.16
2022-11-02T17:29:18.162Z,100427.53
2022-11-02T17:31:45.752Z,100447.91
2022-11-02T17:34:19.579Z,100437.28
2022-11-02T17:36:49.142Z,100426.66
2022-11-02T17:39:19.556Z,100434.88
2022-11-02T17:42:11.718Z,100439.94
2022-11-02T17:44:39.280Z,100436.00
2022-11-02T17:47:14.234Z,100443.38
2022-11-02T17:49:41.454Z,100434.47
2022-11-02T17:52:13.942Z,100432.19
2022-11-02T17:54:41.285Z,100425.97
2022-11-02T17:57:12.998Z,100432.84
2022-11-02T17:59:40.300Z,100439.22
2022-11-02T18:02:12.843Z,100434.41
2022-11-02T18:04:40.150Z,100424.66
2022-11-02T18:07:07.734Z,100436.28
2022-11-02T18:09:34.915Z,100441.34
2022-11-02T18:12:02.404Z,100439.38
2022-11-02T18:14:29.643Z,100449.13
2022-11-02T18:16:57.097Z,100450.38
2022-11-02T18:19:24.232Z,100454.34
2022-11-02T18:21:51.674Z,100449.66
2022-11-02T18:24:19.024Z,100460.22
2022-11-02T18:26:47.175Z,100444.81
2022-11-02T18:29:14.412Z,100451.59
2022-11-02T18:31:41.825Z,100451.75
2022-11-02T18:34:10.580Z,100454.84
2022-11-02T18:36:39.516Z,100454.00
2022-11-02T18:39:06.662Z,100459.31
2022-11-02T18:41:37.672Z,100452.50
2022-11-02T18:44:13.553Z,100458.19
2022-11-02T18:46:42.419Z,100459.06
2022-11-02T18:49:09.547Z,100455.66
2022-11-02T18:51:37.141Z,100450.03
2022-11-02T18:54:06.319Z,100453.69
2022-11-02T18:56:34.088Z,100463.09
2022-11-02T18:59:01.957Z,100460.84
2022-11-02T19:01:29.479Z,100469.47
2022-11-02T19:03:58.939Z,100455.63
2022-11-02T19:06:47.431Z,100459.44
2022-11-02T19:09:18.862Z,100450.59
2022-11-02T19:11:49.298Z,100461.66
2022-11-02T19:14:18.097Z,100458.84
2022-11-02T19:16:45.513Z,100456.16
2022-11-02T19:19:12.713Z,100464.22
2022-11-02T19:21:40.355Z,100457.81
2022-11-02T19:24:08.215Z,100456.22
2022-11-02T19:26:36.010Z,100459.88
2022-11-02T19:29:06.358Z,100453.53
2022-11-02T19:31:35.702Z,100458.91
2022-11-02T19:34:03.548Z,100461.59
2022-11-02T19:36:31.953Z,100452.94
2022-11-02T19:39:00.205Z,100448.81
2022-11-02T19:41:27.725Z,100468.22
2022-11-02T19:43:54.870Z,100468.47
2022-11-02T19:46:22.817Z,100475.22
2022-11-02T19:48:50.909Z,100462.56
2022-11-02T19:51:24.046Z,100470.81
2022-11-02T19:53:53.475Z,100477.88
2022-11-02T19:56:22.393Z,100479.34
2022-11-02T19:58:51.300Z,100469.97
2022-11-02T20:01:21.223Z,100480.84
2022-11-02T20:03:50.133Z,100477.94
2022-11-02T20:06:20.910Z,100477.88
2022-11-02T20:08:55.389Z,100483.78
2022-11-02T20:11:24.078Z,100482.41
2022-11-02T20:13:51.231Z,100475.94
2022-11-02T20:16:19.842Z,100476.59
2022-11-02T20:18:51.205Z,100482.41
2022-11-02T20:21:31.616Z,100474.13
2022-11-02T20:24:01.067Z,100491.16
2022-11-02T20:26:34.039Z,100488.22
2022-11-02T20:29:02.843Z,100495.22
2022-11-02T20:31:36.051Z,100491.75
2022-11-02T20:34:05.084Z,100500.59
2022-11-02T20:36:32.582Z,100500.25
2022-11-02T20:38:59.809Z,100492.59
2022-11-02T20:41:27.813Z,100500.94
2022-11-02T20:43:55.853Z,100507.84
2022-11-02T20:46:42.244Z,100507.03
2022-11-02T20:51:58.148Z,100507.72
2022-11-02T20:54:26.610Z,100497.13
2022-11-02T20:56:54.058Z,100516.56
2022-11-02T20:59:21.216Z,100516.56
2022-11-02T21:01:48.792Z,100515.47
2022-11-02T21:04:20.797Z,100522.28
2022-11-02T21:06:50.003Z,100518.69
2022-11-02T21:09:17.968Z,100520.66
2022-11-02T21:12:04.049Z,100523.47
2022-11-02T21:14:31.317Z,100531.28
2022-11-02T21:16:58.877Z,100516.56
2022-11-02T21:19:25.988Z,100525.97
2022-11-02T21:21:59.080Z,100529.59
2022-11-02T21:24:27.092Z,100524.13
2022-11-02T21:26:54.512Z,100530.44
2022-11-02T21:29:21.679Z,100516.91
2022-11-02T21:31:49.250Z,100529.00
2022-11-02T21:34:16.442Z,100521.09
2022-11-02T21:36:43.853Z,100529.41
2022-11-02T21:39:10.990Z,100535.09
2022-11-02T21:41:39.099Z,100534.63
2022-11-02T21:44:07.559Z,100534.38
2022-11-02T21:46:35.873Z,100532.19
2022-11-02T21:49:03.323Z,100530.38
2022-11-02T21:51:30.847Z,100537.34
2022-11-02T21:53:58.017Z,100537.69
2022-11-02T21:56:28.002Z,100524.66
2022-11-02T21:58:56.107Z,100530.50
2022-11-02T22:01:44.451Z,100537.31
2022-11-02T22:04:16.042Z,100522.63
2022-11-02T22:06:43.683Z,100530.03
2022-11-02T22:09:12.775Z,100524.94
2022-11-02T22:11:40.835Z,100542.56
2022-11-02T22:14:08.115Z,100525.03
2022-11-02T22:16:38.149Z,100537.81
2022-11-02T22:19:07.654Z,100530.91
2022-11-02T22:21:40.450Z,100519.66
2022-11-02T22:24:08.093Z,100526.22
2022-11-02T22:26:37.032Z,100522.19
2022-11-02T22:29:04.715Z,100531.22
2022-11-02T22:31:34.607Z,100515.44
2022-11-02T22:34:03.354Z,100514.47
2022-11-02T22:36:33.087Z,100526.44
2022-11-02T22:39:01.619Z,100512.63
2022-11-02T22:41:38.047Z,100525.03
2022-11-02T22:44:07.908Z,100524.97
2022-11-02T22:46:37.837Z,100516.81
2022-11-02T22:49:06.271Z,100524.94
2022-11-02T22:51:36.275Z,100529.19
2022-11-02T22:54:05.831Z,100531.63
2022-11-02T22:56:33.568Z,100523.44
2022-11-02T22:59:01.541Z,100529.59
2022-11-02T23:01:30.810Z,100546.06
2022-11-02T23:03:58.589Z,100529.06
2022-11-02T23:06:26.167Z,100532.09
2022-11-02T23:08:56.153Z,100539.28
2022-11-02T23:11:36.419Z,100552.44
2022-11-02T23:14:08.362Z,100553.47
2022-11-02T23:16:43.609Z,100561.06
2022-11-02T23:19:30.968Z,100551.84
2022-11-02T23:22:19.797Z,100559.25
2022-11-02T23:25:11.069Z,100559.38
2022-11-02T23:28:14.060Z,100540.34
2022-11-02T23:31:01.191Z,100557.78
2022-11-02T23:33:33.545Z,100553.25
2022-11-02T23:36:15.506Z,100560.66
2022-11-02T23:39:06.224Z,100561.38
2022-11-02T23:41:36.840Z,100555.38
2022-11-02T23:44:18.996Z,100555.84
2022-11-02T23:46:50.675Z,100557.25
2022-11-02T23:49:18.947Z,100557.03
2022-11-02T23:52:04.953Z,100562.19
2022-11-02T23:54:50.734Z,100551.94
2022-11-02T23:57:18.759Z,100562.44
2022-11-02T23:59:45.874Z,100554.75
